createdAt,value
2019-02-02T00:02:26.854Z,5.86
2019-02-02T00:04:58.284Z,5.88
2019-02-02T00:07:32.175Z,5.87
2019-02-02T00:10:03.755Z,5.90
2019-02-02T00:12:35.239Z,5.91
2019-02-02T00:15:07.696Z,5.93
2019-02-02T00:17:39.282Z,5.97
2019-02-02T00:20:11.190Z,5.91
2019-02-02T00:22:42.905Z,5.96
2019-02-02T00:25:15.034Z,5.95
2019-02-02T00:27:47.074Z,5.94
2019-02-02T00:30:18.787Z,5.97
2019-02-02T00:32:50.489Z,5.98
2019-02-02T00:35:21.970Z,5.94
2019-02-02T00:37:53.651Z,5.90
2019-02-02T00:40:25.352Z,5.93
2019-02-02T00:42:57.004Z,5.98
2019-02-02T00:45:28.594Z,5.97
2019-02-02T00:48:00.259Z,5.97
2019-02-02T00:50:31.969Z,6.02
2019-02-02T00:53:03.716Z,6.04
2019-02-02T00:55:35.316Z,6.03
2019-02-02T00:58:08.182Z,6.04
2019-02-02T01:00:39.856Z,6.01
2019-02-02T01:03:11.363Z,6.00
2019-02-02T01:05:44.096Z,6.02
2019-02-02T01:08:15.666Z,6.05
2019-02-02T01:10:47.321Z,6.03
2019-02-02T01:13:18.958Z,6.05
2019-02-02T01:15:50.557Z,6.05
2019-02-02T01:18:22.092Z,6.05
2019-02-02T01:20:54.134Z,6.04
2019-02-02T01:23:25.683Z,6.08
2019-02-02T01:25:57.294Z,6.11
2019-02-02T01:28:29.543Z,6.10
2019-02-02T01:31:01.182Z,6.09
2019-02-02T01:33:32.789Z,6.04
2019-02-02T01:36:04.488Z,6.02
2019-02-02T01:38:36.183Z,5.97
2019-02-02T01:41:07.871Z,6.00
2019-02-02T01:43:39.422Z,6.01
2019-02-02T01:46:11.791Z,5.94
2019-02-02T01:48:43.337Z,5.91
2019-02-02T01:51:14.974Z,5.92
2019-02-02T01:53:49.470Z,5.87
2019-02-02T01:56:21.021Z,5.89
2019-02-02T01:58:52.689Z,5.86
2019-02-02T02:01:24.294Z,5.80
2019-02-02T02:03:55.975Z,5.79
2019-02-02T02:06:27.431Z,5.75
2019-02-02T02:08:59.150Z,5.73
2019-02-02T02:11:30.617Z,5.76
2019-02-02T02:14:02.244Z,5.71
2019-02-02T02:16:33.782Z,5.75
2019-02-02T02:19:05.395Z,5.73
2019-02-02T02:21:37.216Z,5.71
2019-02-02T02:24:10.012Z,5.71
2019-02-02T02:26:41.762Z,5.68
2019-02-02T02:29:13.627Z,5.65
2019-02-02T02:31:45.224Z,5.68
2019-02-02T02:34:17.034Z,5.61
2019-02-02T02:36:49.882Z,5.59
2019-02-02T02:39:21.557Z,5.59
2019-02-02T02:41:53.195Z,5.61
2019-02-02T02:44:26.077Z,5.62
2019-02-02T02:46:57.692Z,5.62
2019-02-02T02:49:30.803Z,5.68
2019-02-02T02:52:02.357Z,5.73
2019-02-02T02:54:43.465Z,5.79
2019-02-02T02:57:15.101Z,5.84
2019-02-02T02:59:46.682Z,5.81
2019-02-02T03:02:18.241Z,5.85
2019-02-02T03:04:49.935Z,5.85
2019-02-02T03:07:21.542Z,5.88
2019-02-02T03:09:53.195Z,5.79
2019-02-02T03:12:24.785Z,5.83
2019-02-02T03:14:56.276Z,5.78
2019-02-02T03:17:27.874Z,5.83
2019-02-02T03:19:59.414Z,5.79
2019-02-02T03:22:31.072Z,5.80
2019-02-02T03:25:05.190Z,5.83
2019-02-02T03:27:36.765Z,5.87
2019-02-02T03:30:10.558Z,5.87
2019-02-02T03:32:42.164Z,5.91
2019-02-02T03:35:15.125Z,6.00
2019-02-02T03:37:47.295Z,6.08
2019-02-02T03:40:21.606Z,6.12
2019-02-02T03:42:53.577Z,6.13
2019-02-02T03:45:25.776Z,6.13
2019-02-02T03:47:57.337Z,6.20
2019-02-02T03:50:28.862Z,6.22
2019-02-02T03:53:00.404Z,6.26
2019-02-02T03:55:31.934Z,6.28
2019-02-02T03:58:03.615Z,6.21
2019-02-02T04:00:35.168Z,6.13
2019-02-02T04:03:06.703Z,6.11
2019-02-02T04:05:38.487Z,6.03
2019-02-02T04:08:10.056Z,5.92
2019-02-02T04:10:41.644Z,5.85
2019-02-02T04:13:13.280Z,5.83
2019-02-02T04:15:44.922Z,5.73
2019-02-02T04:18:16.655Z,5.69
2019-02-02T04:20:49.442Z,5.65
2019-02-02T04:23:21.016Z,5.63
2019-02-02T04:25:52.674Z,5.54
2019-02-02T04:28:24.255Z,5.53
2019-02-02T04:30:55.871Z,5.50
2019-02-02T04:33:27.498Z,5.54
2019-02-02T04:35:58.905Z,5.55
2019-02-02T04:38:30.565Z,5.56
2019-02-02T04:41:02.150Z,5.56
2019-02-02T04:43:33.839Z,5.56
2019-02-02T04:46:05.404Z,5.49
2019-02-02T04:48:37.554Z,5.45
2019-02-02T04:51:09.241Z,5.41
2019-02-02T04:53:40.720Z,5.45
2019-02-02T04:56:12.297Z,5.42
2019-02-02T04:58:43.966Z,5.39
2019-02-02T05:01:15.613Z,5.37
2019-02-02T05:03:47.125Z,5.35
2019-02-02T05:06:18.667Z,5.35
2019-02-02T05:08:50.293Z,5.39
2019-02-02T05:11:21.947Z,5.41
2019-02-02T05:13:53.425Z,5.43
2019-02-02T05:16:25.064Z,5.42
2019-02-02T05:18:56.482Z,5.46
2019-02-02T05:21:28.170Z,5.49
2019-02-02T05:23:59.685Z,5.49
2019-02-02T05:26:31.244Z,5.48
2019-02-02T05:29:02.864Z,5.54
2019-02-02T05:31:34.423Z,5.59
2019-02-02T05:34:07.910Z,5.58
2019-02-02T05:36:39.580Z,5.60
2019-02-02T05:39:11.678Z,5.59
2019-02-02T05:41:43.204Z,5.59
2019-02-02T05:44:14.722Z,5.53
2019-02-02T05:46:46.352Z,5.61
2019-02-02T05:49:18.133Z,5.66
2019-02-02T05:51:49.715Z,5.65
2019-02-02T05:54:21.349Z,5.68
2019-02-02T05:56:52.987Z,5.71
2019-02-02T05:59:25.848Z,5.77
2019-02-02T06:01:57.431Z,5.79
2019-02-02T06:04:29.005Z,5.85
2019-02-02T06:07:02.833Z,5.91
2019-02-02T06:09:34.429Z,6.05
2019-02-02T06:12:05.957Z,6.21
2019-02-02T06:14:37.490Z,6.25
2019-02-02T06:17:09.155Z,6.30
2019-02-02T06:19:40.795Z,6.48
2019-02-02T06:22:12.501Z,6.56
2019-02-02T06:24:44.181Z,6.69
2019-02-02T06:27:18.274Z,6.78
2019-02-02T06:30:03.741Z,6.82
2019-02-02T06:32:26.193Z,6.93
2019-02-02T06:34:57.837Z,7.07
2019-02-02T06:37:29.344Z,7.13
2019-02-02T06:40:01.113Z,7.13
2019-02-02T06:42:34.461Z,7.05
2019-02-02T06:45:10.035Z,6.93
2019-02-02T06:47:41.575Z,6.81
2019-02-02T06:50:16.141Z,6.74
2019-02-02T06:52:47.661Z,6.71
2019-02-02T06:55:19.286Z,6.69
2019-02-02T06:57:50.983Z,6.72
2019-02-02T07:00:26.337Z,6.81
2019-02-02T07:02:57.630Z,6.87
2019-02-02T07:05:29.254Z,6.88
2019-02-02T07:08:00.637Z,6.88
2019-02-02T07:10:32.266Z,6.82
2019-02-02T07:13:04.306Z,6.85
2019-02-02T07:15:35.995Z,6.93
2019-02-02T07:18:07.794Z,7.09
2019-02-02T07:20:39.469Z,7.14
2019-02-02T07:23:11.038Z,7.15
2019-02-02T07:25:42.532Z,7.14
2019-02-02T07:28:14.260Z,7.16
2019-02-02T07:30:45.743Z,7.18
2019-02-02T07:33:17.395Z,7.15
2019-02-02T07:35:49.045Z,7.05
2019-02-02T07:38:20.613Z,7.15
2019-02-02T07:40:52.204Z,7.22
2019-02-02T07:43:24.446Z,7.18
2019-02-02T07:45:56.250Z,7.19
2019-02-02T07:48:28.287Z,7.24
2019-02-02T07:50:59.987Z,7.28
2019-02-02T07:53:31.559Z,7.35
2019-02-02T07:56:03.176Z,7.43
2019-02-02T07:58:34.820Z,7.38
2019-02-02T08:01:06.502Z,7.42
2019-02-02T08:03:38.465Z,7.43
2019-02-02T08:06:10.100Z,7.57
2019-02-02T08:08:41.815Z,7.58
2019-02-02T08:11:13.556Z,7.65
2019-02-02T08:13:44.980Z,7.65
2019-02-02T08:16:16.528Z,7.65
2019-02-02T08:18:48.155Z,7.64
2019-02-02T08:21:19.707Z,7.69
2019-02-02T08:23:51.347Z,7.69
2019-02-02T08:26:23.010Z,7.71
2019-02-02T08:28:54.559Z,7.73
2019-02-02T08:31:26.217Z,7.76
2019-02-02T08:33:58.315Z,7.87
2019-02-02T08:36:29.976Z,7.97
2019-02-02T08:39:01.566Z,8.09
2019-02-02T08:41:33.385Z,8.26
2019-02-02T08:44:05.231Z,8.48
2019-02-02T08:46:36.867Z,8.77
2019-02-02T08:49:08.430Z,8.95
2019-02-02T08:51:40.000Z,9.04
2019-02-02T08:54:11.576Z,9.17
2019-02-02T08:56:43.247Z,9.30
2019-02-02T08:59:14.944Z,9.50
2019-02-02T09:01:48.154Z,9.71
2019-02-02T09:04:20.087Z,9.85
2019-02-02T09:06:53.395Z,9.90
2019-02-02T09:09:25.133Z,9.95
2019-02-02T09:11:56.807Z,10.24
2019-02-02T09:14:28.431Z,10.49
2019-02-02T09:17:00.120Z,10.59
2019-02-02T09:19:31.791Z,10.76
2019-02-02T09:22:03.414Z,11.08
2019-02-02T09:24:35.002Z,11.15
2019-02-02T09:27:06.522Z,11.04
2019-02-02T09:29:38.162Z,10.75
2019-02-02T09:32:09.843Z,10.76
2019-02-02T09:34:41.542Z,10.63
2019-02-02T09:37:13.118Z,10.63
2019-02-02T09:39:44.724Z,10.77
2019-02-02T09:42:16.417Z,10.81
2019-02-02T09:44:48.210Z,10.82
2019-02-02T09:47:20.309Z,10.88
2019-02-02T09:49:52.259Z,10.96
2019-02-02T09:52:25.997Z,11.05
2019-02-02T09:54:57.560Z,11.18
2019-02-02T09:57:29.174Z,11.08
2019-02-02T10:00:00.751Z,11.06
2019-02-02T10:02:32.355Z,11.07
2019-02-02T10:05:03.891Z,10.84
2019-02-02T10:07:35.482Z,10.91
2019-02-02T10:10:08.883Z,10.93
2019-02-02T10:12:40.610Z,11.11
2019-02-02T10:15:13.398Z,11.21
2019-02-02T10:17:44.947Z,11.12
2019-02-02T10:20:19.760Z,11.45
2019-02-02T10:22:51.745Z,11.45
2019-02-02T10:25:25.474Z,11.33
2019-02-02T10:27:58.291Z,11.23
2019-02-02T10:30:32.117Z,11.06
2019-02-02T10:33:03.891Z,10.83
2019-02-02T10:35:35.381Z,10.74
2019-02-02T10:38:07.465Z,10.72
2019-02-02T10:40:39.091Z,10.74
2019-02-02T10:43:10.824Z,10.54
2019-02-02T10:45:42.454Z,10.55
2019-02-02T10:48:13.987Z,10.58
2019-02-02T10:50:45.409Z,10.69
2019-02-02T10:53:17.868Z,10.74
2019-02-02T10:55:49.482Z,10.91
2019-02-02T10:58:21.190Z,10.78
2019-02-02T11:00:52.701Z,10.88
2019-02-02T11:03:24.467Z,11.15
2019-02-02T11:05:56.125Z,11.41
2019-02-02T11:08:27.873Z,11.62
2019-02-02T11:10:59.527Z,11.77
2019-02-02T11:13:31.186Z,11.95
2019-02-02T11:16:02.960Z,12.08
2019-02-02T11:18:34.636Z,12.04
2019-02-02T11:21:06.248Z,12.00
2019-02-02T11:23:37.988Z,11.73
2019-02-02T11:26:11.925Z,11.50
2019-02-02T11:28:43.671Z,11.41
2019-02-02T11:31:15.313Z,11.21
2019-02-02T11:33:47.008Z,11.21
2019-02-02T11:36:18.645Z,11.03
2019-02-02T11:38:50.188Z,10.97
2019-02-02T11:41:21.853Z,10.92
2019-02-02T11:43:53.461Z,10.89
2019-02-02T11:46:25.511Z,10.93
2019-02-02T11:48:57.281Z,11.22
2019-02-02T11:51:30.687Z,11.48
2019-02-02T11:54:02.315Z,12.05
2019-02-02T11:56:33.832Z,12.24
2019-02-02T11:59:05.468Z,12.24
2019-02-02T12:01:37.083Z,12.35
2019-02-02T12:04:08.738Z,12.41
2019-02-02T12:06:40.296Z,12.59
2019-02-02T12:09:12.059Z,12.64
2019-02-02T12:11:43.550Z,12.71
2019-02-02T12:14:15.132Z,12.81
2019-02-02T12:16:46.655Z,12.91
2019-02-02T12:19:18.403Z,12.98
2019-02-02T12:21:49.946Z,13.00
2019-02-02T12:24:21.679Z,12.94
2019-02-02T12:26:53.384Z,13.00
2019-02-02T12:29:25.689Z,12.99
2019-02-02T12:31:57.318Z,12.93
2019-02-02T12:34:29.134Z,12.96
2019-02-02T12:37:00.893Z,12.85
2019-02-02T12:39:33.923Z,12.77
2019-02-02T12:42:05.765Z,12.79
2019-02-02T12:44:37.501Z,12.77
2019-02-02T12:47:09.424Z,12.88
2019-02-02T12:49:41.170Z,13.00
2019-02-02T12:52:13.033Z,12.99
2019-02-02T12:54:44.611Z,13.02
2019-02-02T12:57:18.647Z,13.05
2019-02-02T12:59:50.367Z,12.99
2019-02-02T13:02:25.385Z,13.02
2019-02-02T13:04:56.366Z,12.94
2019-02-02T13:07:28.111Z,12.98
2019-02-02T13:09:59.780Z,12.93
2019-02-02T13:12:31.663Z,12.89
2019-02-02T13:15:03.338Z,12.86
2019-02-02T13:17:35.254Z,12.80
2019-02-02T13:20:07.884Z,12.75
2019-02-02T13:22:39.673Z,12.70
2019-02-02T13:25:13.578Z,12.67
2019-02-02T13:27:45.185Z,12.72
2019-02-02T13:30:22.663Z,12.67
2019-02-02T13:32:54.242Z,12.70
2019-02-02T13:35:25.822Z,12.65
2019-02-02T13:37:57.413Z,12.55
2019-02-02T13:40:29.015Z,12.58
2019-02-02T13:43:00.568Z,12.51
2019-02-02T13:45:32.120Z,12.54
2019-02-02T13:48:04.007Z,12.53
2019-02-02T13:50:36.987Z,12.53
2019-02-02T13:53:09.690Z,12.50
2019-02-02T13:55:42.507Z,12.55
2019-02-02T13:58:14.195Z,12.50
2019-02-02T14:00:45.679Z,12.44
2019-02-02T14:03:17.305Z,12.35
2019-02-02T14:05:49.046Z,12.29
2019-02-02T14:08:20.584Z,12.22
2019-02-02T14:10:52.144Z,12.13
2019-02-02T14:13:23.704Z,12.03
2019-02-02T14:15:55.363Z,12.00
2019-02-02T14:18:26.915Z,11.96
2019-02-02T14:20:58.562Z,11.87
2019-02-02T14:23:30.151Z,11.53
2019-02-02T14:26:01.952Z,10.86
2019-02-02T14:28:34.792Z,10.86
2019-02-02T14:31:06.419Z,10.62
2019-02-02T14:33:38.005Z,10.39
2019-02-02T14:36:09.698Z,10.10
2019-02-02T14:38:41.361Z,10.02
2019-02-02T14:41:13.169Z,9.87
2019-02-02T14:43:44.863Z,9.70
2019-02-02T14:46:16.706Z,9.71
2019-02-02T14:48:48.413Z,9.64
2019-02-02T14:51:19.921Z,9.58
2019-02-02T14:53:51.474Z,9.58
2019-02-02T14:56:23.022Z,9.52
2019-02-02T14:58:54.643Z,9.58
2019-02-02T15:01:26.185Z,9.56
2019-02-02T15:03:57.934Z,9.69
2019-02-02T15:06:29.458Z,9.69
2019-02-02T15:09:01.107Z,9.72
2019-02-02T15:11:34.200Z,9.85
2019-02-02T15:14:05.729Z,10.04
2019-02-02T15:16:37.349Z,10.14
2019-02-02T15:19:12.288Z,10.19
2019-02-02T15:21:44.023Z,10.29
2019-02-02T15:24:15.696Z,10.34
2019-02-02T15:26:47.497Z,10.35
2019-02-02T15:29:19.217Z,10.40
2019-02-02T15:31:50.866Z,10.47
2019-02-02T15:34:22.539Z,10.45
2019-02-02T15:36:54.106Z,10.39
2019-02-02T15:39:26.130Z,10.41
2019-02-02T15:41:57.867Z,10.45
2019-02-02T15:44:29.566Z,10.52
2019-02-02T15:47:01.226Z,10.53
2019-02-02T15:49:33.015Z,10.56
2019-02-02T15:52:04.691Z,10.63
2019-02-02T15:54:36.352Z,10.66
2019-02-02T15:57:08.013Z,10.70
2019-02-02T15:59:39.591Z,10.74
2019-02-02T16:02:13.974Z,10.75
2019-02-02T16:04:45.611Z,10.75
2019-02-02T16:07:17.183Z,10.75
2019-02-02T16:09:48.740Z,10.74
2019-02-02T16:12:20.263Z,10.65
2019-02-02T16:14:52.843Z,10.51
2019-02-02T16:17:24.384Z,10.29
2019-02-02T16:19:55.993Z,10.12
2019-02-02T16:22:28.792Z,9.95
2019-02-02T16:25:00.438Z,9.85
2019-02-02T16:27:32.181Z,9.79
2019-02-02T16:30:03.848Z,9.81
2019-02-02T16:32:36.682Z,9.74
2019-02-02T16:35:09.570Z,9.66
2019-02-02T16:37:41.289Z,9.67
2019-02-02T16:40:15.882Z,9.69
2019-02-02T16:42:47.417Z,9.65
2019-02-02T16:45:21.187Z,9.64
2019-02-02T16:47:52.981Z,9.67
2019-02-02T16:50:24.803Z,9.65
2019-02-02T16:52:56.605Z,9.46
2019-02-02T16:55:28.304Z,9.48
2019-02-02T16:57:59.943Z,9.33
2019-02-02T17:00:33.454Z,9.25
2019-02-02T17:03:05.255Z,9.19
2019-02-02T17:05:36.851Z,9.09
2019-02-02T17:08:10.832Z,8.97
2019-02-02T17:10:42.380Z,8.95
2019-02-02T17:13:14.145Z,8.84
2019-02-02T17:15:50.119Z,8.86
2019-02-02T17:18:23.609Z,8.78
2019-02-02T17:20:55.271Z,8.70
2019-02-02T17:23:26.771Z,8.67
2019-02-02T17:25:59.971Z,8.71
2019-02-02T17:28:33.365Z,8.66
2019-02-02T17:31:05.301Z,8.58
2019-02-02T17:33:37.634Z,8.68
2019-02-02T17:36:10.847Z,8.49
2019-02-02T17:38:42.400Z,8.63
2019-02-02T17:41:13.923Z,8.73
2019-02-02T17:43:45.436Z,8.74
2019-02-02T17:46:16.950Z,8.81
2019-02-02T17:48:48.715Z,8.84
2019-02-02T17:51:20.303Z,8.99
2019-02-02T17:53:51.988Z,9.18
2019-02-02T17:56:23.691Z,9.38
2019-02-02T17:58:55.416Z,9.49
2019-02-02T18:01:27.126Z,9.51
2019-02-02T18:03:58.632Z,9.51
2019-02-02T18:06:30.223Z,9.51
2019-02-02T18:09:04.911Z,9.53
2019-02-02T18:11:36.833Z,9.56
2019-02-02T18:14:08.477Z,9.51
2019-02-02T18:16:41.294Z,9.54
2019-02-02T18:19:12.815Z,9.58
2019-02-02T18:21:44.372Z,9.63
2019-02-02T18:24:15.829Z,9.67
2019-02-02T18:26:47.563Z,9.70
2019-02-02T18:29:19.083Z,9.73
2019-02-02T18:31:50.736Z,9.77
2019-02-02T18:34:22.413Z,9.80
2019-02-02T18:36:54.002Z,9.83
2019-02-02T18:39:25.574Z,9.80
2019-02-02T18:41:57.273Z,9.84
2019-02-02T18:44:30.113Z,9.85
2019-02-02T18:47:03.045Z,9.84
2019-02-02T18:49:34.622Z,9.85
2019-02-02T18:52:06.388Z,9.89
2019-02-02T18:54:38.097Z,9.91
2019-02-02T18:57:10.249Z,9.88
2019-02-02T18:59:42.928Z,9.93
2019-02-02T19:02:15.031Z,9.90
2019-02-02T19:04:46.591Z,9.86
2019-02-02T19:07:18.614Z,9.74
2019-02-02T19:09:50.282Z,9.79
2019-02-02T19:12:23.062Z,9.76
2019-02-02T19:14:56.158Z,9.78
2019-02-02T19:17:27.933Z,9.77
2019-02-02T19:19:59.569Z,9.74
2019-02-02T19:22:31.093Z,9.75
2019-02-02T19:25:02.721Z,9.79
2019-02-02T19:27:34.292Z,9.78
2019-02-02T19:30:07.617Z,9.74
2019-02-02T19:32:39.255Z,9.66
2019-02-02T19:37:45.985Z,9.68
2019-02-02T19:40:17.859Z,9.71
2019-02-02T19:42:49.589Z,9.71
2019-02-02T19:45:23.950Z,9.70
2019-02-02T19:47:55.582Z,9.71
2019-02-02T19:50:27.535Z,9.73
2019-02-02T19:52:59.074Z,9.79
2019-02-02T19:55:30.772Z,9.77
2019-02-02T19:58:02.352Z,9.80
2019-02-02T20:00:34.512Z,9.76
2019-02-02T20:03:06.523Z,9.66
2019-02-02T20:05:39.282Z,9.58
2019-02-02T20:08:11.016Z,9.62
2019-02-02T20:10:42.705Z,9.61
2019-02-02T20:13:14.316Z,9.68
2019-02-02T20:15:46.010Z,9.63
2019-02-02T20:18:17.505Z,9.59
2019-02-02T20:20:49.124Z,9.67
2019-02-02T20:23:20.802Z,9.72
2019-02-02T20:25:52.553Z,9.70
2019-02-02T20:28:25.335Z,9.68
2019-02-02T20:30:57.032Z,9.72
2019-02-02T20:33:28.747Z,9.75
2019-02-02T20:36:00.370Z,9.68
2019-02-02T20:38:31.979Z,9.64
2019-02-02T20:41:03.792Z,9.66
2019-02-02T20:43:36.472Z,9.63
2019-02-02T20:46:09.130Z,9.57
2019-02-02T20:48:40.654Z,9.52
2019-02-02T20:51:12.292Z,9.50
2019-02-02T20:53:43.761Z,9.50
2019-02-02T20:56:15.561Z,9.43
2019-02-02T20:58:47.155Z,9.33
2019-02-02T21:01:20.102Z,9.28
2019-02-02T21:03:53.316Z,9.20
2019-02-02T21:06:24.841Z,9.19
2019-02-02T21:08:57.786Z,9.15
2019-02-02T21:11:30.013Z,9.09
2019-02-02T21:14:01.647Z,9.12
2019-02-02T21:16:33.843Z,9.14
2019-02-02T21:19:05.913Z,9.08
2019-02-02T21:21:37.993Z,9.11
2019-02-02T21:24:09.757Z,9.16
2019-02-02T21:26:41.371Z,9.18
2019-02-02T21:29:13.091Z,9.18
2019-02-02T21:31:47.311Z,9.14
2019-02-02T21:34:19.219Z,9.10
2019-02-02T21:36:50.935Z,9.07
2019-02-02T21:39:22.421Z,9.18
2019-02-02T21:41:54.130Z,9.19
2019-02-02T21:44:25.656Z,9.17
2019-02-02T21:46:57.729Z,9.20
2019-02-02T21:49:29.295Z,9.18
2019-02-02T21:52:01.223Z,9.19
2019-02-02T21:54:32.815Z,9.16
2019-02-02T21:57:04.947Z,9.14
2019-02-02T21:59:37.080Z,9.13
2019-02-02T22:02:08.791Z,9.08
2019-02-02T22:04:41.546Z,9.09
2019-02-02T22:07:13.250Z,9.04
2019-02-02T22:09:44.945Z,9.05
2019-02-02T22:12:16.707Z,8.99
2019-02-02T22:14:48.388Z,8.92
2019-02-02T22:17:20.041Z,9.01
2019-02-02T22:19:51.794Z,8.97
2019-02-02T22:22:27.413Z,8.98
2019-02-02T22:24:59.013Z,8.98
2019-02-02T22:27:33.064Z,8.99
2019-02-02T22:30:07.790Z,8.95
2019-02-02T22:32:40.869Z,8.98
2019-02-02T22:35:14.434Z,8.89
2019-02-02T22:37:46.122Z,8.95
2019-02-02T22:40:19.963Z,8.93
2019-02-02T22:42:51.608Z,8.87
2019-02-02T22:45:23.698Z,8.89
2019-02-02T22:47:55.308Z,8.96
2019-02-02T22:50:27.999Z,8.96
2019-02-02T22:52:59.493Z,8.92
2019-02-02T22:55:31.062Z,8.94
2019-02-02T22:58:02.712Z,8.88
2019-02-02T23:01:07.744Z,8.93
2019-02-02T23:04:30.726Z,8.90
2019-02-02T23:07:23.698Z,8.86
2019-02-02T23:10:22.102Z,8.90
2019-02-02T23:13:33.319Z,8.95
2019-02-02T23:16:24.863Z,8.96
2019-02-02T23:18:56.921Z,9.01
2019-02-02T23:21:30.082Z,8.96
2019-02-02T23:24:05.062Z,8.95
2019-02-02T23:26:36.587Z,8.97
2019-02-02T23:29:09.780Z,8.97
2019-02-02T23:31:44.267Z,9.00
2019-02-02T23:34:16.581Z,8.93
2019-02-02T23:36:51.964Z,8.93
2019-02-02T23:39:23.878Z,8.90
2019-02-02T23:41:55.563Z,8.93
2019-02-02T23:44:27.256Z,8.98
2019-02-02T23:47:36.923Z,8.98
2019-02-02T23:50:11.539Z,8.87
2019-02-02T23:52:43.157Z,8.74
2019-02-02T23:55:14.831Z,8.76
2019-02-02T23:57:46.572Z,8.75
